sensor_id;sensor_type;location;lat;lon;timestamp;P1;durP1;ratioP1;P2;durP2;ratioP2
13797;SDS011;6970;51.340;3.240;2023-02-12T00:01:47;27.10;;;17.87;;
13797;SDS011;6970;51.340;3.240;2023-02-12T00:04:17;27.30;;;18.93;;
13797;SDS011;6970;51.340;3.240;2023-02-12T00:06:46;31.07;;;19.53;;
13797;SDS011;6970;51.340;3.240;2023-02-12T00:09:13;27.03;;;19.50;;
13797;SDS011;6970;51.340;3.240;2023-02-12T00:11:41;26.80;;;19.37;;
13797;SDS011;6970;51.340;3.240;2023-02-12T00:14:09;28.50;;;19.00;;
13797;SDS011;6970;51.340;3.240;2023-02-12T00:16:37;30.97;;;19.23;;
13797;SDS011;6970;51.340;3.240;2023-02-12T00:19:04;32.37;;;20.03;;
13797;SDS011;6970;51.340;3.240;2023-02-12T00:21:31;25.43;;;17.87;;
13797;SDS011;6970;51.340;3.240;2023-02-12T00:24:00;27.63;;;19.80;;
13797;SDS011;6970;51.340;3.240;2023-02-12T00:26:28;33.17;;;20.30;;
13797;SDS011;6970;51.340;3.240;2023-02-12T00:28:56;31.23;;;19.73;;
13797;SDS011;6970;51.340;3.240;2023-02-12T00:31:27;32.20;;;19.60;;
13797;SDS011;6970;51.340;3.240;2023-02-12T00:33:56;30.47;;;19.73;;
13797;SDS011;6970;51.340;3.240;2023-02-12T00:36:26;33.50;;;21.73;;
13797;SDS011;6970;51.340;3.240;2023-02-12T00:38:56;27.13;;;18.57;;
13797;SDS011;6970;51.340;3.240;2023-02-12T00:41:30;28.37;;;18.93;;
13797;SDS011;6970;51.340;3.240;2023-02-12T00:46:27;27.13;;;19.63;;
13797;SDS011;6970;51.340;3.240;2023-02-12T00:48:55;25.93;;;19.00;;
13797;SDS011;6970;51.340;3.240;2023-02-12T00:51:22;32.07;;;19.77;;
13797;SDS011;6970;51.340;3.240;2023-02-12T00:53:50;30.20;;;19.67;;
13797;SDS011;6970;51.340;3.240;2023-02-12T00:56:17;28.60;;;18.73;;
13797;SDS011;6970;51.340;3.240;2023-02-12T00:58:46;26.33;;;18.43;;
13797;SDS011;6970;51.340;3.240;2023-02-12T01:01:15;30.63;;;18.60;;
13797;SDS011;6970;51.340;3.240;2023-02-12T01:03:49;27.20;;;18.77;;
13797;SDS011;6970;51.340;3.240;2023-02-12T01:06:17;31.00;;;19.83;;
13797;SDS011;6970;51.340;3.240;2023-02-12T01:11:17;32.93;;;20.43;;
13797;SDS011;6970;51.340;3.240;2023-02-12T01:13:48;30.20;;;19.97;;
13797;SDS011;6970;51.340;3.240;2023-02-12T01:16:19;33.40;;;19.80;;
13797;SDS011;6970;51.340;3.240;2023-02-12T01:21:24;27.40;;;18.40;;
13797;SDS011;6970;51.340;3.240;2023-02-12T01:23:54;32.20;;;19.60;;
13797;SDS011;6970;51.340;3.240;2023-02-12T01:26:23;29.37;;;18.77;;
13797;SDS011;6970;51.340;3.240;2023-02-12T01:28:51;28.47;;;20.27;;
13797;SDS011;6970;51.340;3.240;2023-02-12T01:31:24;27.83;;;19.60;;
13797;SDS011;6970;51.340;3.240;2023-02-12T01:33:57;29.57;;;19.57;;
13797;SDS011;6970;51.340;3.240;2023-02-12T01:36:26;29.73;;;19.33;;
13797;SDS011;6970;51.340;3.240;2023-02-12T01:52:30;27.57;;;18.93;;
13797;SDS011;6970;51.340;3.240;2023-02-12T01:55:04;27.23;;;18.70;;
13797;SDS011;6970;51.340;3.240;2023-02-12T01:57:35;24.87;;;17.83;;
13797;SDS011;6970;51.340;3.240;2023-02-12T02:00:08;26.13;;;18.13;;
13797;SDS011;6970;51.340;3.240;2023-02-12T02:02:40;25.37;;;19.33;;
13797;SDS011;6970;51.340;3.240;2023-02-12T02:05:13;30.97;;;19.17;;
13797;SDS011;6970;51.340;3.240;2023-02-12T02:07:48;28.83;;;18.93;;
13797;SDS011;6970;51.340;3.240;2023-02-12T02:10:15;29.60;;;18.53;;
13797;SDS011;6970;51.340;3.240;2023-02-12T02:12:45;30.77;;;20.17;;
13797;SDS011;6970;51.340;3.240;2023-02-12T02:15:34;27.17;;;18.63;;
13797;SDS011;6970;51.340;3.240;2023-02-12T02:18:10;24.37;;;18.63;;
13797;SDS011;6970;51.340;3.240;2023-02-12T02:32:26;29.27;;;19.50;;
13797;SDS011;6970;51.340;3.240;2023-02-12T02:40:35;25.30;;;18.17;;
13797;SDS011;6970;51.340;3.240;2023-02-12T02:43:22;24.10;;;17.30;;
13797;SDS011;6970;51.340;3.240;2023-02-12T02:46:01;27.67;;;18.10;;
13797;SDS011;6970;51.340;3.240;2023-02-12T02:48:44;27.17;;;17.90;;
13797;SDS011;6970;51.340;3.240;2023-02-12T02:56:34;26.73;;;19.07;;
13797;SDS011;6970;51.340;3.240;2023-02-12T02:59:08;25.20;;;19.00;;
13797;SDS011;6970;51.340;3.240;2023-02-12T03:01:51;29.10;;;18.93;;
13797;SDS011;6970;51.340;3.240;2023-02-12T03:09:48;28.53;;;19.07;;
13797;SDS011;6970;51.340;3.240;2023-02-12T03:12:37;20.53;;;17.10;;
13797;SDS011;6970;51.340;3.240;2023-02-12T03:17:48;24.67;;;17.53;;
13797;SDS011;6970;51.340;3.240;2023-02-12T03:20:27;23.30;;;17.67;;
13797;SDS011;6970;51.340;3.240;2023-02-12T03:23:05;25.43;;;17.73;;
13797;SDS011;6970;51.340;3.240;2023-02-12T03:25:51;25.33;;;17.60;;
13797;SDS011;6970;51.340;3.240;2023-02-12T03:28:39;23.73;;;17.17;;
13797;SDS011;6970;51.340;3.240;2023-02-12T03:38:54;28.40;;;18.90;;
13797;SDS011;6970;51.340;3.240;2023-02-12T03:47:17;26.27;;;20.00;;
13797;SDS011;6970;51.340;3.240;2023-02-12T03:49:52;27.83;;;19.33;;
13797;SDS011;6970;51.340;3.240;2023-02-12T03:52:28;25.87;;;18.50;;
13797;SDS011;6970;51.340;3.240;2023-02-12T04:00:04;27.57;;;19.37;;
13797;SDS011;6970;51.340;3.240;2023-02-12T04:05:15;29.13;;;18.73;;
13797;SDS011;6970;51.340;3.240;2023-02-12T04:07:49;30.10;;;20.17;;
13797;SDS011;6970;51.340;3.240;2023-02-12T04:10:18;26.00;;;19.00;;
13797;SDS011;6970;51.340;3.240;2023-02-12T04:13:04;28.33;;;19.87;;
13797;SDS011;6970;51.340;3.240;2023-02-12T04:27:46;25.67;;;17.83;;
13797;SDS011;6970;51.340;3.240;2023-02-12T04:30:20;27.00;;;18.77;;
13797;SDS011;6970;51.340;3.240;2023-02-12T04:32:57;25.43;;;19.07;;
13797;SDS011;6970;51.340;3.240;2023-02-12T04:39:06;27.47;;;19.00;;
13797;SDS011;6970;51.340;3.240;2023-02-12T04:41:17;22.10;;;17.27;;
13797;SDS011;6970;51.340;3.240;2023-02-12T04:43:48;24.27;;;18.97;;
13797;SDS011;6970;51.340;3.240;2023-02-12T04:46:17;25.37;;;18.00;;
13797;SDS011;6970;51.340;3.240;2023-02-12T04:51:20;25.93;;;18.17;;
13797;SDS011;6970;51.340;3.240;2023-02-12T04:53:48;25.93;;;18.67;;
13797;SDS011;6970;51.340;3.240;2023-02-12T04:56:16;25.53;;;18.40;;
13797;SDS011;6970;51.340;3.240;2023-02-12T04:58:44;26.30;;;18.37;;
13797;SDS011;6970;51.340;3.240;2023-02-12T05:01:11;22.10;;;17.63;;
13797;SDS011;6970;51.340;3.240;2023-02-12T05:03:39;25.17;;;18.80;;
13797;SDS011;6970;51.340;3.240;2023-02-12T05:06:09;21.90;;;17.50;;
13797;SDS011;6970;51.340;3.240;2023-02-12T05:08:36;21.03;;;16.13;;
13797;SDS011;6970;51.340;3.240;2023-02-12T05:11:07;22.90;;;18.27;;
13797;SDS011;6970;51.340;3.240;2023-02-12T05:13:36;23.83;;;18.17;;
13797;SDS011;6970;51.340;3.240;2023-02-12T05:16:04;22.27;;;17.67;;
13797;SDS011;6970;51.340;3.240;2023-02-12T05:18:33;24.20;;;17.60;;
13797;SDS011;6970;51.340;3.240;2023-02-12T05:21:03;24.90;;;17.83;;
13797;SDS011;6970;51.340;3.240;2023-02-12T05:23:32;25.60;;;18.50;;
13797;SDS011;6970;51.340;3.240;2023-02-12T05:26:04;25.37;;;18.77;;
13797;SDS011;6970;51.340;3.240;2023-02-12T05:28:37;27.07;;;19.80;;
13797;SDS011;6970;51.340;3.240;2023-02-12T05:31:07;21.63;;;17.83;;
13797;SDS011;6970;51.340;3.240;2023-02-12T05:36:17;24.03;;;19.07;;
13797;SDS011;6970;51.340;3.240;2023-02-12T05:41:21;26.43;;;18.90;;
13797;SDS011;6970;51.340;3.240;2023-02-12T05:43:52;23.00;;;17.17;;
13797;SDS011;6970;51.340;3.240;2023-02-12T05:48:49;23.70;;;18.40;;
13797;SDS011;6970;51.340;3.240;2023-02-12T05:51:22;25.77;;;18.90;;
13797;SDS011;6970;51.340;3.240;2023-02-12T05:56:26;24.97;;;17.40;;
13797;SDS011;6970;51.340;3.240;2023-02-12T05:58:59;25.37;;;18.90;;
13797;SDS011;6970;51.340;3.240;2023-02-12T06:01:31;27.40;;;20.17;;
13797;SDS011;6970;51.340;3.240;2023-02-12T06:04:02;24.87;;;18.50;;
13797;SDS011;6970;51.340;3.240;2023-02-12T06:06:31;26.10;;;18.97;;
13797;SDS011;6970;51.340;3.240;2023-02-12T06:08:58;25.87;;;19.23;;
13797;SDS011;6970;51.340;3.240;2023-02-12T06:11:27;27.97;;;19.00;;
13797;SDS011;6970;51.340;3.240;2023-02-12T06:13:56;27.00;;;18.93;;
13797;SDS011;6970;51.340;3.240;2023-02-12T06:16:26;23.87;;;17.73;;
13797;SDS011;6970;51.340;3.240;2023-02-12T06:18:54;23.97;;;18.37;;
13797;SDS011;6970;51.340;3.240;2023-02-12T06:21:24;23.03;;;17.77;;
13797;SDS011;6970;51.340;3.240;2023-02-12T06:23:54;23.07;;;18.23;;
13797;SDS011;6970;51.340;3.240;2023-02-12T06:26:22;24.83;;;18.97;;
13797;SDS011;6970;51.340;3.240;2023-02-12T06:28:50;21.97;;;17.33;;
13797;SDS011;6970;51.340;3.240;2023-02-12T06:31:23;23.30;;;17.80;;
13797;SDS011;6970;51.340;3.240;2023-02-12T06:36:26;21.93;;;18.17;;
13797;SDS011;6970;51.340;3.240;2023-02-12T06:38:53;26.80;;;20.20;;
13797;SDS011;6970;51.340;3.240;2023-02-12T06:41:21;27.73;;;20.67;;
13797;SDS011;6970;51.340;3.240;2023-02-12T06:43:50;22.77;;;17.97;;
13797;SDS011;6970;51.340;3.240;2023-02-12T06:46:20;24.27;;;18.27;;
13797;SDS011;6970;51.340;3.240;2023-02-12T06:48:48;21.10;;;17.33;;
13797;SDS011;6970;51.340;3.240;2023-02-12T06:51:21;25.73;;;17.97;;
13797;SDS011;6970;51.340;3.240;2023-02-12T06:53:51;24.03;;;18.80;;
13797;SDS011;6970;51.340;3.240;2023-02-12T06:56:21;24.17;;;18.90;;
13797;SDS011;6970;51.340;3.240;2023-02-12T06:58:55;21.87;;;17.77;;
13797;SDS011;6970;51.340;3.240;2023-02-12T07:01:28;23.93;;;18.47;;
13797;SDS011;6970;51.340;3.240;2023-02-12T07:04:00;24.37;;;17.77;;
13797;SDS011;6970;51.340;3.240;2023-02-12T07:06:30;25.90;;;18.23;;
13797;SDS011;6970;51.340;3.240;2023-02-12T07:08:59;22.17;;;16.83;;
13797;SDS011;6970;51.340;3.240;2023-02-12T07:11:27;23.20;;;16.90;;
13797;SDS011;6970;51.340;3.240;2023-02-12T07:13:57;23.00;;;18.27;;
13797;SDS011;6970;51.340;3.240;2023-02-12T07:16:26;23.37;;;17.83;;
13797;SDS011;6970;51.340;3.240;2023-02-12T07:18:53;23.13;;;17.10;;
13797;SDS011;6970;51.340;3.240;2023-02-12T07:21:23;23.60;;;18.03;;
13797;SDS011;6970;51.340;3.240;2023-02-12T07:23:51;22.27;;;16.93;;
13797;SDS011;6970;51.340;3.240;2023-02-12T07:26:20;24.03;;;18.30;;
13797;SDS011;6970;51.340;3.240;2023-02-12T07:28:49;23.03;;;18.03;;
13797;SDS011;6970;51.340;3.240;2023-02-12T07:31:26;23.50;;;18.20;;
13797;SDS011;6970;51.340;3.240;2023-02-12T07:33:54;24.57;;;18.47;;
13797;SDS011;6970;51.340;3.240;2023-02-12T07:38:58;22.87;;;17.57;;
13797;SDS011;6970;51.340;3.240;2023-02-12T07:41:34;22.20;;;17.97;;
13797;SDS011;6970;51.340;3.240;2023-02-12T07:46:37;22.63;;;17.40;;
13797;SDS011;6970;51.340;3.240;2023-02-12T07:49:09;23.60;;;18.13;;
13797;SDS011;6970;51.340;3.240;2023-02-12T07:51:45;22.70;;;16.40;;
13797;SDS011;6970;51.340;3.240;2023-02-12T07:56:46;22.23;;;17.17;;
13797;SDS011;6970;51.340;3.240;2023-02-12T07:59:15;19.90;;;17.63;;
13797;SDS011;6970;51.340;3.240;2023-02-12T08:01:53;21.30;;;16.57;;
13797;SDS011;6970;51.340;3.240;2023-02-12T08:04:26;23.33;;;17.90;;
13797;SDS011;6970;51.340;3.240;2023-02-12T08:06:56;22.33;;;16.40;;
13797;SDS011;6970;51.340;3.240;2023-02-12T08:09:26;20.83;;;16.90;;
13797;SDS011;6970;51.340;3.240;2023-02-12T08:14:26;20.70;;;16.60;;
13797;SDS011;6970;51.340;3.240;2023-02-12T08:16:54;21.13;;;16.93;;
13797;SDS011;6970;51.340;3.240;2023-02-12T08:19:21;20.97;;;16.17;;
13797;SDS011;6970;51.340;3.240;2023-02-12T08:21:54;23.73;;;17.90;;
13797;SDS011;6970;51.340;3.240;2023-02-12T08:26:52;22.70;;;17.40;;
13797;SDS011;6970;51.340;3.240;2023-02-12T08:29:20;19.93;;;17.00;;
13797;SDS011;6970;51.340;3.240;2023-02-12T08:31:50;20.57;;;16.87;;
13797;SDS011;6970;51.340;3.240;2023-02-12T08:34:23;21.77;;;16.47;;
13797;SDS011;6970;51.340;3.240;2023-02-12T08:36:52;18.67;;;16.03;;
13797;SDS011;6970;51.340;3.240;2023-02-12T08:39:21;21.87;;;16.90;;
13797;SDS011;6970;51.340;3.240;2023-02-12T08:41:52;22.63;;;18.00;;
13797;SDS011;6970;51.340;3.240;2023-02-12T08:44:26;23.40;;;16.87;;
13797;SDS011;6970;51.340;3.240;2023-02-12T08:46:57;23.80;;;17.77;;
13797;SDS011;6970;51.340;3.240;2023-02-12T08:49:26;20.00;;;16.10;;
13797;SDS011;6970;51.340;3.240;2023-02-12T08:51:58;21.97;;;16.83;;
13797;SDS011;6970;51.340;3.240;2023-02-12T08:54:28;22.10;;;16.80;;
13797;SDS011;6970;51.340;3.240;2023-02-12T08:57:01;20.67;;;16.40;;
13797;SDS011;6970;51.340;3.240;2023-02-12T08:59:30;21.57;;;17.70;;
13797;SDS011;6970;51.340;3.240;2023-02-12T09:02:00;19.77;;;16.37;;
13797;SDS011;6970;51.340;3.240;2023-02-12T09:07:01;20.77;;;16.63;;
13797;SDS011;6970;51.340;3.240;2023-02-12T09:09:28;20.97;;;16.50;;
13797;SDS011;6970;51.340;3.240;2023-02-12T09:11:55;21.30;;;16.97;;
13797;SDS011;6970;51.340;3.240;2023-02-12T09:14:24;21.20;;;16.23;;
13797;SDS011;6970;51.340;3.240;2023-02-12T09:16:53;24.40;;;18.40;;
13797;SDS011;6970;51.340;3.240;2023-02-12T09:19:20;21.43;;;16.97;;
13797;SDS011;6970;51.340;3.240;2023-02-12T09:21:53;21.93;;;17.43;;
13797;SDS011;6970;51.340;3.240;2023-02-12T09:24:25;20.60;;;16.73;;
13797;SDS011;6970;51.340;3.240;2023-02-12T09:26:54;22.00;;;16.57;;
13797;SDS011;6970;51.340;3.240;2023-02-12T09:29:23;18.20;;;16.27;;
13797;SDS011;6970;51.340;3.240;2023-02-12T09:31:50;22.13;;;17.17;;
13797;SDS011;6970;51.340;3.240;2023-02-12T09:34:21;20.63;;;16.97;;
13797;SDS011;6970;51.340;3.240;2023-02-12T09:36:50;18.47;;;15.70;;
13797;SDS011;6970;51.340;3.240;2023-02-12T09:39:17;21.83;;;17.50;;
13797;SDS011;6970;51.340;3.240;2023-02-12T09:44:53;21.97;;;16.87;;
13797;SDS011;6970;51.340;3.240;2023-02-12T09:47:35;19.23;;;16.37;;
13797;SDS011;6970;51.340;3.240;2023-02-12T09:50:27;21.33;;;17.60;;
13797;SDS011;6970;51.340;3.240;2023-02-12T09:52:59;22.43;;;17.70;;
13797;SDS011;6970;51.340;3.240;2023-02-12T09:58:01;20.33;;;16.87;;
13797;SDS011;6970;51.340;3.240;2023-02-12T10:00:37;23.57;;;18.33;;
13797;SDS011;6970;51.340;3.240;2023-02-12T10:03:15;21.17;;;17.20;;
13797;SDS011;6970;51.340;3.240;2023-02-12T10:05:51;23.13;;;18.07;;
13797;SDS011;6970;51.340;3.240;2023-02-12T10:28:20;22.43;;;17.87;;
13797;SDS011;6970;51.340;3.240;2023-02-12T10:30:57;20.87;;;18.17;;
13797;SDS011;6970;51.340;3.240;2023-02-12T10:33:35;21.00;;;17.80;;
13797;SDS011;6970;51.340;3.240;2023-02-12T10:39:11;19.53;;;16.87;;
13797;SDS011;6970;51.340;3.240;2023-02-12T10:41:47;24.33;;;18.07;;
13797;SDS011;6970;51.340;3.240;2023-02-12T10:44:27;23.17;;;18.63;;
13797;SDS011;6970;51.340;3.240;2023-02-12T10:46:54;22.00;;;18.23;;
13797;SDS011;6970;51.340;3.240;2023-02-12T10:49:25;22.57;;;19.60;;
13797;SDS011;6970;51.340;3.240;2023-02-12T10:52:35;26.00;;;18.40;;
13797;SDS011;6970;51.340;3.240;2023-02-12T10:54:58;24.10;;;19.70;;
13797;SDS011;6970;51.340;3.240;2023-02-12T10:57:30;28.40;;;20.73;;
13797;SDS011;6970;51.340;3.240;2023-02-12T11:05:46;30.57;;;21.50;;
13797;SDS011;6970;51.340;3.240;2023-02-12T11:10:54;28.63;;;22.57;;
13797;SDS011;6970;51.340;3.240;2023-02-12T11:13:31;27.97;;;21.53;;
13797;SDS011;6970;51.340;3.240;2023-02-12T11:18:32;27.90;;;23.03;;
13797;SDS011;6970;51.340;3.240;2023-02-12T11:21:06;27.43;;;22.37;;
13797;SDS011;6970;51.340;3.240;2023-02-12T11:23:42;27.13;;;22.13;;
13797;SDS011;6970;51.340;3.240;2023-02-12T11:29:00;26.87;;;21.73;;
13797;SDS011;6970;51.340;3.240;2023-02-12T11:32:02;26.43;;;20.70;;
13797;SDS011;6970;51.340;3.240;2023-02-12T11:34:34;27.70;;;21.27;;
13797;SDS011;6970;51.340;3.240;2023-02-12T11:37:02;25.23;;;21.80;;
13797;SDS011;6970;51.340;3.240;2023-02-12T11:39:34;25.37;;;21.73;;
13797;SDS011;6970;51.340;3.240;2023-02-12T11:42:15;23.57;;;20.43;;
13797;SDS011;6970;51.340;3.240;2023-02-12T11:44:49;26.77;;;21.93;;
13797;SDS011;6970;51.340;3.240;2023-02-12T11:47:29;22.93;;;19.53;;
13797;SDS011;6970;51.340;3.240;2023-02-12T11:52:35;31.60;;;22.13;;
13797;SDS011;6970;51.340;3.240;2023-02-12T11:55:21;25.53;;;21.03;;
13797;SDS011;6970;51.340;3.240;2023-02-12T11:57:52;27.93;;;21.60;;
13797;SDS011;6970;51.340;3.240;2023-02-12T12:00:34;24.73;;;20.30;;
13797;SDS011;6970;51.340;3.240;2023-02-12T12:18:25;26.37;;;19.23;;
13797;SDS011;6970;51.340;3.240;2023-02-12T12:24:09;19.90;;;16.27;;
13797;SDS011;6970;51.340;3.240;2023-02-12T12:29:16;18.53;;;15.67;;
13797;SDS011;6970;51.340;3.240;2023-02-12T12:31:55;19.17;;;15.70;;
13797;SDS011;6970;51.340;3.240;2023-02-12T12:34:26;19.70;;;16.57;;
13797;SDS011;6970;51.340;3.240;2023-02-12T12:43:25;17.77;;;15.93;;
13797;SDS011;6970;51.340;3.240;2023-02-12T12:52:44;19.40;;;16.00;;
13797;SDS011;6970;51.340;3.240;2023-02-12T12:54:59;21.00;;;16.70;;
13797;SDS011;6970;51.340;3.240;2023-02-12T13:14:13;19.50;;;15.57;;
13797;SDS011;6970;51.340;3.240;2023-02-12T13:16:59;22.30;;;17.53;;
13797;SDS011;6970;51.340;3.240;2023-02-12T13:22:37;20.43;;;17.47;;
13797;SDS011;6970;51.340;3.240;2023-02-12T13:28:14;22.57;;;17.40;;
13797;SDS011;6970;51.340;3.240;2023-02-12T13:30:51;22.77;;;17.47;;
13797;SDS011;6970;51.340;3.240;2023-02-12T13:33:42;19.63;;;16.73;;
13797;SDS011;6970;51.340;3.240;2023-02-12T13:36:16;22.10;;;17.23;;
13797;SDS011;6970;51.340;3.240;2023-02-12T13:38:47;20.73;;;16.73;;
13797;SDS011;6970;51.340;3.240;2023-02-12T13:41:33;19.10;;;16.83;;
13797;SDS011;6970;51.340;3.240;2023-02-12T13:52:40;21.30;;;19.00;;
13797;SDS011;6970;51.340;3.240;2023-02-12T13:55:25;22.77;;;20.10;;
13797;SDS011;6970;51.340;3.240;2023-02-12T14:03:34;32.70;;;21.73;;
13797;SDS011;6970;51.340;3.240;2023-02-12T14:08:45;21.50;;;19.17;;
13797;SDS011;6970;51.340;3.240;2023-02-12T14:11:22;24.93;;;19.30;;
13797;SDS011;6970;51.340;3.240;2023-02-12T14:25:00;21.03;;;18.70;;
13797;SDS011;6970;51.340;3.240;2023-02-12T14:30:32;21.73;;;19.37;;
13797;SDS011;6970;51.340;3.240;2023-02-12T14:35:40;20.27;;;18.17;;
13797;SDS011;6970;51.340;3.240;2023-02-12T14:40:46;20.13;;;18.00;;
13797;SDS011;6970;51.340;3.240;2023-02-12T14:48:54;24.10;;;19.70;;
13797;SDS011;6970;51.340;3.240;2023-02-12T14:51:45;22.33;;;19.40;;
13797;SDS011;6970;51.340;3.240;2023-02-12T14:59:38;22.07;;;19.73;;
13797;SDS011;6970;51.340;3.240;2023-02-12T15:02:16;25.13;;;21.73;;
13797;SDS011;6970;51.340;3.240;2023-02-12T15:04:55;25.87;;;21.20;;
13797;SDS011;6970;51.340;3.240;2023-02-12T15:07:32;22.80;;;20.03;;
13797;SDS011;6970;51.340;3.240;2023-02-12T15:10:14;29.97;;;23.53;;
13797;SDS011;6970;51.340;3.240;2023-02-12T15:20:55;31.23;;;24.60;;
13797;SDS011;6970;51.340;3.240;2023-02-12T15:23:36;30.30;;;24.77;;
13797;SDS011;6970;51.340;3.240;2023-02-12T15:26:17;31.90;;;25.17;;
13797;SDS011;6970;51.340;3.240;2023-02-12T15:28:48;30.90;;;24.50;;
13797;SDS011;6970;51.340;3.240;2023-02-12T15:31:28;29.10;;;23.50;;
13797;SDS011;6970;51.340;3.240;2023-02-12T15:33:59;35.93;;;26.30;;
13797;SDS011;6970;51.340;3.240;2023-02-12T15:39:00;41.20;;;29.97;;
13797;SDS011;6970;51.340;3.240;2023-02-12T15:41:39;40.53;;;28.83;;
13797;SDS011;6970;51.340;3.240;2023-02-12T15:46:53;43.77;;;29.40;;
13797;SDS011;6970;51.340;3.240;2023-02-12T15:49:34;37.60;;;28.43;;
13797;SDS011;6970;51.340;3.240;2023-02-12T15:52:08;35.17;;;27.83;;
13797;SDS011;6970;51.340;3.240;2023-02-12T15:54:50;40.47;;;29.40;;
13797;SDS011;6970;51.340;3.240;2023-02-12T15:57:23;35.03;;;27.17;;
13797;SDS011;6970;51.340;3.240;2023-02-12T16:02:26;35.80;;;28.10;;
13797;SDS011;6970;51.340;3.240;2023-02-12T16:04:59;39.33;;;28.10;;
13797;SDS011;6970;51.340;3.240;2023-02-12T16:07:31;36.23;;;27.40;;
13797;SDS011;6970;51.340;3.240;2023-02-12T16:10:02;35.63;;;26.60;;
13797;SDS011;6970;51.340;3.240;2023-02-12T16:12:32;31.83;;;25.60;;
13797;SDS011;6970;51.340;3.240;2023-02-12T16:17:54;39.87;;;27.93;;
13797;SDS011;6970;51.340;3.240;2023-02-12T16:20:24;35.33;;;27.03;;
13797;SDS011;6970;51.340;3.240;2023-02-12T16:22:53;34.23;;;26.40;;
13797;SDS011;6970;51.340;3.240;2023-02-12T16:25:27;32.37;;;24.47;;
13797;SDS011;6970;51.340;3.240;2023-02-12T16:27:58;34.37;;;24.50;;
13797;SDS011;6970;51.340;3.240;2023-02-12T16:30:35;34.53;;;24.63;;
13797;SDS011;6970;51.340;3.240;2023-02-12T16:33:04;32.83;;;24.63;;
13797;SDS011;6970;51.340;3.240;2023-02-12T16:36:25;31.97;;;23.77;;
13797;SDS011;6970;51.340;3.240;2023-02-12T16:38:57;30.93;;;24.03;;
13797;SDS011;6970;51.340;3.240;2023-02-12T16:41:29;32.57;;;25.33;;
13797;SDS011;6970;51.340;3.240;2023-02-12T16:46:31;33.67;;;24.37;;
13797;SDS011;6970;51.340;3.240;2023-02-12T16:49:02;31.97;;;24.73;;
13797;SDS011;6970;51.340;3.240;2023-02-12T16:51:33;35.70;;;26.37;;
13797;SDS011;6970;51.340;3.240;2023-02-12T16:54:37;31.37;;;24.63;;
13797;SDS011;6970;51.340;3.240;2023-02-12T16:57:00;32.67;;;24.77;;
13797;SDS011;6970;51.340;3.240;2023-02-12T16:59:30;30.60;;;22.80;;
13797;SDS011;6970;51.340;3.240;2023-02-12T17:02:02;29.87;;;23.37;;
13797;SDS011;6970;51.340;3.240;2023-02-12T17:04:38;31.00;;;22.90;;
13797;SDS011;6970;51.340;3.240;2023-02-12T17:10:04;30.57;;;23.30;;
13797;SDS011;6970;51.340;3.240;2023-02-12T17:12:33;35.87;;;25.90;;
13797;SDS011;6970;51.340;3.240;2023-02-12T17:20:00;29.47;;;23.07;;
13797;SDS011;6970;51.340;3.240;2023-02-12T17:22:27;32.47;;;24.73;;
13797;SDS011;6970;51.340;3.240;2023-02-12T17:24:57;31.13;;;24.43;;
13797;SDS011;6970;51.340;3.240;2023-02-12T17:27:24;32.17;;;23.37;;
13797;SDS011;6970;51.340;3.240;2023-02-12T17:29:52;28.53;;;23.00;;
13797;SDS011;6970;51.340;3.240;2023-02-12T17:34:51;32.00;;;24.20;;
13797;SDS011;6970;51.340;3.240;2023-02-12T17:37:20;34.10;;;24.77;;
13797;SDS011;6970;51.340;3.240;2023-02-12T17:42:21;37.80;;;26.80;;
13797;SDS011;6970;51.340;3.240;2023-02-12T17:44:54;33.80;;;25.97;;
13797;SDS011;6970;51.340;3.240;2023-02-12T17:47:24;33.50;;;24.13;;
13797;SDS011;6970;51.340;3.240;2023-02-12T17:49:51;34.13;;;24.40;;
13797;SDS011;6970;51.340;3.240;2023-02-12T17:54:48;32.93;;;27.50;;
13797;SDS011;6970;51.340;3.240;2023-02-12T17:57:16;36.30;;;27.07;;
13797;SDS011;6970;51.340;3.240;2023-02-12T17:59:46;34.93;;;24.50;;
13797;SDS011;6970;51.340;3.240;2023-02-12T18:02:14;33.67;;;25.63;;
13797;SDS011;6970;51.340;3.240;2023-02-12T18:09:44;31.95;;;23.70;;
13797;SDS011;6970;51.340;3.240;2023-02-12T18:12:18;30.30;;;23.33;;
13797;SDS011;6970;51.340;3.240;2023-02-12T18:14:45;33.47;;;24.07;;
13797;SDS011;6970;51.340;3.240;2023-02-12T18:17:12;31.30;;;22.50;;
13797;SDS011;6970;51.340;3.240;2023-02-12T18:19:39;29.83;;;22.33;;
13797;SDS011;6970;51.340;3.240;2023-02-12T18:22:08;27.00;;;21.23;;
13797;SDS011;6970;51.340;3.240;2023-02-12T18:24:36;32.23;;;21.00;;
13797;SDS011;6970;51.340;3.240;2023-02-12T18:27:04;31.53;;;21.50;;
13797;SDS011;6970;51.340;3.240;2023-02-12T18:29:34;30.80;;;22.30;;
13797;SDS011;6970;51.340;3.240;2023-02-12T18:32:04;29.77;;;22.43;;
13797;SDS011;6970;51.340;3.240;2023-02-12T18:34:34;28.00;;;21.80;;
13797;SDS011;6970;51.340;3.240;2023-02-12T18:37:01;33.10;;;23.03;;
13797;SDS011;6970;51.340;3.240;2023-02-12T18:42:00;37.80;;;26.47;;
13797;SDS011;6970;51.340;3.240;2023-02-12T18:46:58;41.87;;;25.50;;
13797;SDS011;6970;51.340;3.240;2023-02-12T18:49:26;38.30;;;26.83;;
13797;SDS011;6970;51.340;3.240;2023-02-12T18:51:53;39.73;;;26.97;;
13797;SDS011;6970;51.340;3.240;2023-02-12T18:54:20;37.07;;;27.13;;
13797;SDS011;6970;51.340;3.240;2023-02-12T18:56:49;39.80;;;26.33;;
13797;SDS011;6970;51.340;3.240;2023-02-12T18:59:17;40.10;;;27.50;;
13797;SDS011;6970;51.340;3.240;2023-02-12T19:01:45;40.93;;;27.40;;
13797;SDS011;6970;51.340;3.240;2023-02-12T19:04:13;39.97;;;28.00;;
13797;SDS011;6970;51.340;3.240;2023-02-12T19:06:43;36.97;;;27.40;;
13797;SDS011;6970;51.340;3.240;2023-02-12T19:09:16;37.23;;;27.37;;
13797;SDS011;6970;51.340;3.240;2023-02-12T19:11:47;36.33;;;26.30;;
13797;SDS011;6970;51.340;3.240;2023-02-12T19:14:15;37.03;;;26.63;;
13797;SDS011;6970;51.340;3.240;2023-02-12T19:16:44;35.43;;;26.20;;
13797;SDS011;6970;51.340;3.240;2023-02-12T19:19:11;35.63;;;25.80;;
13797;SDS011;6970;51.340;3.240;2023-02-12T19:21:39;34.77;;;25.93;;
13797;SDS011;6970;51.340;3.240;2023-02-12T19:24:06;38.77;;;26.87;;
13797;SDS011;6970;51.340;3.240;2023-02-12T19:26:36;32.37;;;24.93;;
13797;SDS011;6970;51.340;3.240;2023-02-12T19:29:03;31.60;;;22.87;;
13797;SDS011;6970;51.340;3.240;2023-02-12T19:31:35;34.23;;;24.10;;
13797;SDS011;6970;51.340;3.240;2023-02-12T19:34:04;31.97;;;24.57;;
13797;SDS011;6970;51.340;3.240;2023-02-12T19:36:34;34.87;;;24.03;;
13797;SDS011;6970;51.340;3.240;2023-02-12T19:39:04;28.97;;;22.97;;
13797;SDS011;6970;51.340;3.240;2023-02-12T19:41:32;33.03;;;24.23;;
13797;SDS011;6970;51.340;3.240;2023-02-12T19:44:19;32.93;;;22.97;;
13797;SDS011;6970;51.340;3.240;2023-02-12T19:46:51;30.07;;;21.87;;
13797;SDS011;6970;51.340;3.240;2023-02-12T19:51:50;29.90;;;23.57;;
13797;SDS011;6970;51.340;3.240;2023-02-12T19:54:18;35.07;;;24.30;;
13797;SDS011;6970;51.340;3.240;2023-02-12T19:56:47;34.20;;;24.10;;
13797;SDS011;6970;51.340;3.240;2023-02-12T20:01:51;34.57;;;24.47;;
13797;SDS011;6970;51.340;3.240;2023-02-12T20:04:20;35.90;;;24.47;;
13797;SDS011;6970;51.340;3.240;2023-02-12T20:06:51;34.23;;;25.27;;
13797;SDS011;6970;51.340;3.240;2023-02-12T20:09:20;31.77;;;22.83;;
13797;SDS011;6970;51.340;3.240;2023-02-12T20:11:50;30.60;;;22.93;;
13797;SDS011;6970;51.340;3.240;2023-02-12T20:14:17;32.40;;;23.37;;
13797;SDS011;6970;51.340;3.240;2023-02-12T20:16:47;32.63;;;23.70;;
13797;SDS011;6970;51.340;3.240;2023-02-12T20:19:23;34.23;;;23.50;;
13797;SDS011;6970;51.340;3.240;2023-02-12T20:21:55;31.60;;;22.57;;